sensor_id;sensor_type;location;lat;lon;timestamp;P1;durP1;ratioP1;P2;durP2;ratioP2
37895;SDS011;23733;53.254;10.430;2023-07-24T00:02:02;1.67;;;1.57;;
37895;SDS011;23733;53.254;10.430;2023-07-24T00:04:30;1.80;;;1.60;;
37895;SDS011;23733;53.254;10.430;2023-07-24T00:06:56;3.40;;;1.70;;
37895;SDS011;23733;53.254;10.430;2023-07-24T00:09:23;3.70;;;1.80;;
37895;SDS011;23733;53.254;10.430;2023-07-24T00:11:49;2.20;;;1.60;;
37895;SDS011;23733;53.254;10.430;2023-07-24T00:14:16;1.93;;;1.70;;
37895;SDS011;23733;53.254;10.430;2023-07-24T00:16:42;3.57;;;1.80;;
37895;SDS011;23733;53.254;10.430;2023-07-24T00:19:08;2.43;;;1.93;;
37895;SDS011;23733;53.254;10.430;2023-07-24T00:21:35;4.83;;;2.10;;
37895;SDS011;23733;53.254;10.430;2023-07-24T00:24:01;1.80;;;1.50;;
37895;SDS011;23733;53.254;10.430;2023-07-24T00:26:27;3.37;;;1.73;;
37895;SDS011;23733;53.254;10.430;2023-07-24T00:28:54;2.83;;;2.03;;
37895;SDS011;23733;53.254;10.430;2023-07-24T00:31:20;1.90;;;1.60;;
37895;SDS011;23733;53.254;10.430;2023-07-24T00:33:46;1.50;;;1.40;;
37895;SDS011;23733;53.254;10.430;2023-07-24T00:36:12;5.07;;;1.90;;
37895;SDS011;23733;53.254;10.430;2023-07-24T00:38:39;2.13;;;1.80;;
37895;SDS011;23733;53.254;10.430;2023-07-24T00:41:05;1.60;;;1.50;;
37895;SDS011;23733;53.254;10.430;2023-07-24T00:43:31;2.63;;;1.60;;
37895;SDS011;23733;53.254;10.430;2023-07-24T00:45:57;4.50;;;1.67;;
37895;SDS011;23733;53.254;10.430;2023-07-24T00:48:23;1.73;;;1.53;;
37895;SDS011;23733;53.254;10.430;2023-07-24T00:50:50;2.13;;;1.60;;
37895;SDS011;23733;53.254;10.430;2023-07-24T00:53:16;2.30;;;1.60;;
37895;SDS011;23733;53.254;10.430;2023-07-24T00:55:43;2.60;;;1.70;;
37895;SDS011;23733;53.254;10.430;2023-07-24T00:58:11;2.67;;;1.70;;
37895;SDS011;23733;53.254;10.430;2023-07-24T01:00:40;2.20;;;1.50;;
37895;SDS011;23733;53.254;10.430;2023-07-24T01:03:07;2.57;;;1.70;;
37895;SDS011;23733;53.254;10.430;2023-07-24T01:05:33;2.30;;;1.60;;
37895;SDS011;23733;53.254;10.430;2023-07-24T01:07:59;1.63;;;1.40;;
37895;SDS011;23733;53.254;10.430;2023-07-24T01:10:25;1.73;;;1.63;;
37895;SDS011;23733;53.254;10.430;2023-07-24T01:15:26;3.70;;;1.70;;
37895;SDS011;23733;53.254;10.430;2023-07-24T01:18:10;3.33;;;1.60;;
37895;SDS011;23733;53.254;10.430;2023-07-24T01:20:37;2.20;;;1.50;;
37895;SDS011;23733;53.254;10.430;2023-07-24T01:23:13;2.40;;;1.53;;
37895;SDS011;23733;53.254;10.430;2023-07-24T01:28:15;1.90;;;1.70;;
37895;SDS011;23733;53.254;10.430;2023-07-24T01:30:42;2.10;;;1.60;;
37895;SDS011;23733;53.254;10.430;2023-07-24T01:33:08;2.73;;;1.87;;
37895;SDS011;23733;53.254;10.430;2023-07-24T01:35:34;4.07;;;1.60;;
37895;SDS011;23733;53.254;10.430;2023-07-24T01:38:01;5.30;;;1.60;;
37895;SDS011;23733;53.254;10.430;2023-07-24T01:40:28;1.70;;;1.60;;
37895;SDS011;23733;53.254;10.430;2023-07-24T01:42:55;2.10;;;1.90;;
37895;SDS011;23733;53.254;10.430;2023-07-24T01:45:24;2.10;;;1.70;;
37895;SDS011;23733;53.254;10.430;2023-07-24T01:47:51;1.70;;;1.60;;
37895;SDS011;23733;53.254;10.430;2023-07-24T01:50:17;1.60;;;1.50;;
37895;SDS011;23733;53.254;10.430;2023-07-24T01:52:43;2.50;;;1.90;;
37895;SDS011;23733;53.254;10.430;2023-07-24T01:55:10;1.87;;;1.70;;
37895;SDS011;23733;53.254;10.430;2023-07-24T01:57:37;2.27;;;1.60;;
37895;SDS011;23733;53.254;10.430;2023-07-24T02:00:03;2.23;;;1.90;;
37895;SDS011;23733;53.254;10.430;2023-07-24T02:02:29;3.87;;;1.67;;
37895;SDS011;23733;53.254;10.430;2023-07-24T02:04:56;2.47;;;1.80;;
37895;SDS011;23733;53.254;10.430;2023-07-24T02:07:22;2.27;;;1.80;;
37895;SDS011;23733;53.254;10.430;2023-07-24T02:09:49;2.17;;;1.63;;
37895;SDS011;23733;53.254;10.430;2023-07-24T02:12:15;1.80;;;1.60;;
37895;SDS011;23733;53.254;10.430;2023-07-24T02:14:41;2.73;;;1.90;;
37895;SDS011;23733;53.254;10.430;2023-07-24T02:17:08;3.30;;;1.87;;
37895;SDS011;23733;53.254;10.430;2023-07-24T02:19:34;2.03;;;1.70;;
37895;SDS011;23733;53.254;10.430;2023-07-24T02:22:01;2.40;;;1.90;;
37895;SDS011;23733;53.254;10.430;2023-07-24T02:24:27;1.97;;;1.73;;
37895;SDS011;23733;53.254;10.430;2023-07-24T02:26:53;2.70;;;1.97;;
37895;SDS011;23733;53.254;10.430;2023-07-24T02:29:20;2.00;;;1.70;;
37895;SDS011;23733;53.254;10.430;2023-07-24T02:31:47;4.97;;;1.70;;
37895;SDS011;23733;53.254;10.430;2023-07-24T02:34:14;2.30;;;1.80;;
37895;SDS011;23733;53.254;10.430;2023-07-24T02:36:40;2.73;;;1.90;;
37895;SDS011;23733;53.254;10.430;2023-07-24T02:39:06;1.70;;;1.60;;
37895;SDS011;23733;53.254;10.430;2023-07-24T02:41:33;3.60;;;1.80;;
37895;SDS011;23733;53.254;10.430;2023-07-24T02:43:59;2.23;;;1.70;;
37895;SDS011;23733;53.254;10.430;2023-07-24T02:46:25;2.10;;;1.90;;
37895;SDS011;23733;53.254;10.430;2023-07-24T02:48:52;3.60;;;1.93;;
37895;SDS011;23733;53.254;10.430;2023-07-24T02:51:18;4.47;;;1.90;;
37895;SDS011;23733;53.254;10.430;2023-07-24T02:53:44;2.67;;;2.30;;
37895;SDS011;23733;53.254;10.430;2023-07-24T02:56:11;2.40;;;2.00;;
37895;SDS011;23733;53.254;10.430;2023-07-24T02:58:37;2.53;;;2.00;;
37895;SDS011;23733;53.254;10.430;2023-07-24T03:01:04;3.00;;;1.70;;
37895;SDS011;23733;53.254;10.430;2023-07-24T03:03:32;2.93;;;2.03;;
37895;SDS011;23733;53.254;10.430;2023-07-24T03:05:58;2.40;;;2.00;;
37895;SDS011;23733;53.254;10.430;2023-07-24T03:08:25;2.93;;;1.93;;
37895;SDS011;23733;53.254;10.430;2023-07-24T03:10:51;2.10;;;1.90;;
37895;SDS011;23733;53.254;10.430;2023-07-24T03:13:17;3.77;;;2.13;;
37895;SDS011;23733;53.254;10.430;2023-07-24T03:15:51;3.23;;;2.10;;
37895;SDS011;23733;53.254;10.430;2023-07-24T03:18:17;2.20;;;1.87;;
37895;SDS011;23733;53.254;10.430;2023-07-24T03:20:44;3.10;;;2.00;;
37895;SDS011;23733;53.254;10.430;2023-07-24T03:23:10;3.10;;;2.10;;
37895;SDS011;23733;53.254;10.430;2023-07-24T03:25:36;2.20;;;1.93;;
37895;SDS011;23733;53.254;10.430;2023-07-24T03:28:02;2.33;;;2.13;;
37895;SDS011;23733;53.254;10.430;2023-07-24T03:30:29;3.23;;;2.20;;
37895;SDS011;23733;53.254;10.430;2023-07-24T03:32:55;3.50;;;2.40;;
37895;SDS011;23733;53.254;10.430;2023-07-24T03:35:22;3.10;;;2.30;;
37895;SDS011;23733;53.254;10.430;2023-07-24T03:37:48;3.37;;;2.33;;
37895;SDS011;23733;53.254;10.430;2023-07-24T03:40:14;2.70;;;2.10;;
37895;SDS011;23733;53.254;10.430;2023-07-24T03:42:41;2.40;;;2.07;;
37895;SDS011;23733;53.254;10.430;2023-07-24T03:45:07;2.47;;;2.20;;
37895;SDS011;23733;53.254;10.430;2023-07-24T03:47:34;3.13;;;2.23;;
37895;SDS011;23733;53.254;10.430;2023-07-24T03:50:00;2.40;;;2.20;;
37895;SDS011;23733;53.254;10.430;2023-07-24T03:52:27;2.80;;;2.23;;
37895;SDS011;23733;53.254;10.430;2023-07-24T03:54:53;3.30;;;2.20;;
37895;SDS011;23733;53.254;10.430;2023-07-24T03:57:19;2.63;;;2.23;;
37895;SDS011;23733;53.254;10.430;2023-07-24T03:59:45;2.60;;;2.10;;
37895;SDS011;23733;53.254;10.430;2023-07-24T04:02:12;2.53;;;2.27;;
37895;SDS011;23733;53.254;10.430;2023-07-24T04:04:38;3.13;;;2.53;;
37895;SDS011;23733;53.254;10.430;2023-07-24T04:07:05;2.87;;;2.43;;
37895;SDS011;23733;53.254;10.430;2023-07-24T04:09:31;3.23;;;2.07;;
37895;SDS011;23733;53.254;10.430;2023-07-24T04:11:57;2.63;;;2.43;;
37895;SDS011;23733;53.254;10.430;2023-07-24T04:14:23;3.57;;;2.13;;
37895;SDS011;23733;53.254;10.430;2023-07-24T04:16:50;2.87;;;2.57;;
37895;SDS011;23733;53.254;10.430;2023-07-24T04:19:16;2.80;;;2.20;;
37895;SDS011;23733;53.254;10.430;2023-07-24T04:21:42;4.77;;;2.40;;
37895;SDS011;23733;53.254;10.430;2023-07-24T04:24:08;2.90;;;2.30;;
37895;SDS011;23733;53.254;10.430;2023-07-24T04:26:34;3.30;;;2.20;;
37895;SDS011;23733;53.254;10.430;2023-07-24T04:29:01;2.43;;;2.10;;
37895;SDS011;23733;53.254;10.430;2023-07-24T04:31:27;3.23;;;2.20;;
37895;SDS011;23733;53.254;10.430;2023-07-24T04:33:53;3.10;;;2.63;;
37895;SDS011;23733;53.254;10.430;2023-07-24T04:36:20;3.13;;;2.03;;
37895;SDS011;23733;53.254;10.430;2023-07-24T04:38:46;3.10;;;2.37;;
37895;SDS011;23733;53.254;10.430;2023-07-24T04:41:12;2.50;;;2.30;;
37895;SDS011;23733;53.254;10.430;2023-07-24T04:43:39;3.60;;;2.60;;
37895;SDS011;23733;53.254;10.430;2023-07-24T04:46:05;2.60;;;2.30;;
37895;SDS011;23733;53.254;10.430;2023-07-24T04:48:31;4.47;;;2.23;;
37895;SDS011;23733;53.254;10.430;2023-07-24T04:50:57;2.30;;;2.10;;
37895;SDS011;23733;53.254;10.430;2023-07-24T04:53:23;2.40;;;2.20;;
37895;SDS011;23733;53.254;10.430;2023-07-24T04:55:50;4.10;;;2.37;;
37895;SDS011;23733;53.254;10.430;2023-07-24T04:58:16;4.57;;;2.30;;
37895;SDS011;23733;53.254;10.430;2023-07-24T05:00:42;3.00;;;2.50;;
37895;SDS011;23733;53.254;10.430;2023-07-24T05:03:08;3.43;;;2.60;;
37895;SDS011;23733;53.254;10.430;2023-07-24T05:05:36;3.10;;;2.20;;
37895;SDS011;23733;53.254;10.430;2023-07-24T05:08:03;2.73;;;2.30;;
37895;SDS011;23733;53.254;10.430;2023-07-24T05:10:29;2.60;;;2.40;;
37895;SDS011;23733;53.254;10.430;2023-07-24T05:12:59;2.20;;;2.00;;
37895;SDS011;23733;53.254;10.430;2023-07-24T05:15:26;2.97;;;2.60;;
37895;SDS011;23733;53.254;10.430;2023-07-24T05:17:52;3.67;;;2.20;;
37895;SDS011;23733;53.254;10.430;2023-07-24T05:20:18;4.13;;;2.87;;
37895;SDS011;23733;53.254;10.430;2023-07-24T05:22:44;2.57;;;2.30;;
37895;SDS011;23733;53.254;10.430;2023-07-24T05:25:10;2.83;;;2.33;;
37895;SDS011;23733;53.254;10.430;2023-07-24T05:27:36;2.43;;;2.23;;
37895;SDS011;23733;53.254;10.430;2023-07-24T05:30:03;4.23;;;2.50;;
37895;SDS011;23733;53.254;10.430;2023-07-24T05:32:30;2.90;;;2.43;;
37895;SDS011;23733;53.254;10.430;2023-07-24T05:34:56;2.93;;;2.40;;
37895;SDS011;23733;53.254;10.430;2023-07-24T05:37:22;2.83;;;2.10;;
37895;SDS011;23733;53.254;10.430;2023-07-24T05:39:48;2.73;;;2.47;;
37895;SDS011;23733;53.254;10.430;2023-07-24T05:42:14;2.90;;;2.10;;
37895;SDS011;23733;53.254;10.430;2023-07-24T05:44:40;2.50;;;2.10;;
37895;SDS011;23733;53.254;10.430;2023-07-24T05:47:06;2.90;;;2.10;;
37895;SDS011;23733;53.254;10.430;2023-07-24T05:49:32;2.97;;;2.13;;
37895;SDS011;23733;53.254;10.430;2023-07-24T05:51:58;2.07;;;1.80;;
37895;SDS011;23733;53.254;10.430;2023-07-24T05:54:25;2.40;;;2.20;;
37895;SDS011;23733;53.254;10.430;2023-07-24T05:56:52;3.97;;;2.30;;
37895;SDS011;23733;53.254;10.430;2023-07-24T05:59:18;2.67;;;2.30;;
37895;SDS011;23733;53.254;10.430;2023-07-24T06:01:44;2.30;;;2.00;;
37895;SDS011;23733;53.254;10.430;2023-07-24T06:04:10;4.20;;;1.77;;
37895;SDS011;23733;53.254;10.430;2023-07-24T06:06:36;2.23;;;1.90;;
37895;SDS011;23733;53.254;10.430;2023-07-24T06:09:02;3.50;;;2.10;;
37895;SDS011;23733;53.254;10.430;2023-07-24T06:11:28;4.63;;;2.03;;
37895;SDS011;23733;53.254;10.430;2023-07-24T06:13:54;3.20;;;1.93;;
37895;SDS011;23733;53.254;10.430;2023-07-24T06:16:20;1.97;;;1.77;;
37895;SDS011;23733;53.254;10.430;2023-07-24T06:18:46;2.90;;;2.03;;
37895;SDS011;23733;53.254;10.430;2023-07-24T06:21:12;3.23;;;2.03;;
37895;SDS011;23733;53.254;10.430;2023-07-24T06:23:38;2.17;;;1.97;;
37895;SDS011;23733;53.254;10.430;2023-07-24T06:26:04;2.20;;;1.67;;
37895;SDS011;23733;53.254;10.430;2023-07-24T06:28:30;2.50;;;1.90;;
37895;SDS011;23733;53.254;10.430;2023-07-24T06:30:57;2.47;;;1.97;;
37895;SDS011;23733;53.254;10.430;2023-07-24T06:33:23;2.80;;;1.80;;
37895;SDS011;23733;53.254;10.430;2023-07-24T06:35:50;2.57;;;2.17;;
37895;SDS011;23733;53.254;10.430;2023-07-24T06:38:16;3.37;;;2.10;;
37895;SDS011;23733;53.254;10.430;2023-07-24T06:40:42;2.93;;;2.30;;
37895;SDS011;23733;53.254;10.430;2023-07-24T06:43:08;6.20;;;2.47;;
37895;SDS011;23733;53.254;10.430;2023-07-24T06:45:34;3.80;;;2.20;;
37895;SDS011;23733;53.254;10.430;2023-07-24T06:48:00;2.80;;;2.20;;
37895;SDS011;23733;53.254;10.430;2023-07-24T06:50:26;2.60;;;2.40;;
37895;SDS011;23733;53.254;10.430;2023-07-24T06:52:52;2.50;;;2.30;;
37895;SDS011;23733;53.254;10.430;2023-07-24T06:55:19;3.80;;;2.53;;
37895;SDS011;23733;53.254;10.430;2023-07-24T06:57:45;3.00;;;2.27;;
37895;SDS011;23733;53.254;10.430;2023-07-24T07:00:12;2.60;;;2.40;;
37895;SDS011;23733;53.254;10.430;2023-07-24T07:02:38;4.37;;;2.47;;
37895;SDS011;23733;53.254;10.430;2023-07-24T07:05:04;3.60;;;2.77;;
37895;SDS011;23733;53.254;10.430;2023-07-24T07:07:31;3.93;;;2.60;;
37895;SDS011;23733;53.254;10.430;2023-07-24T07:09:57;5.50;;;3.07;;
37895;SDS011;23733;53.254;10.430;2023-07-24T07:12:23;3.00;;;2.60;;
37895;SDS011;23733;53.254;10.430;2023-07-24T07:14:50;3.37;;;3.07;;
37895;SDS011;23733;53.254;10.430;2023-07-24T07:17:16;3.27;;;2.60;;
37895;SDS011;23733;53.254;10.430;2023-07-24T07:19:42;3.53;;;2.80;;
37895;SDS011;23733;53.254;10.430;2023-07-24T07:22:08;5.63;;;3.10;;
37895;SDS011;23733;53.254;10.430;2023-07-24T07:24:34;3.27;;;2.97;;
37895;SDS011;23733;53.254;10.430;2023-07-24T07:27:00;3.47;;;2.77;;
37895;SDS011;23733;53.254;10.430;2023-07-24T07:29:26;3.47;;;3.00;;
37895;SDS011;23733;53.254;10.430;2023-07-24T07:31:52;9.70;;;3.43;;
37895;SDS011;23733;53.254;10.430;2023-07-24T07:34:18;3.10;;;2.80;;
37895;SDS011;23733;53.254;10.430;2023-07-24T07:36:44;4.90;;;3.30;;
37895;SDS011;23733;53.254;10.430;2023-07-24T07:39:10;3.90;;;2.93;;
37895;SDS011;23733;53.254;10.430;2023-07-24T07:41:36;3.23;;;2.93;;
37895;SDS011;23733;53.254;10.430;2023-07-24T07:44:02;4.00;;;3.03;;
37895;SDS011;23733;53.254;10.430;2023-07-24T07:46:28;4.50;;;3.10;;
37895;SDS011;23733;53.254;10.430;2023-07-24T07:48:54;7.63;;;3.10;;
37895;SDS011;23733;53.254;10.430;2023-07-24T07:51:20;4.80;;;3.00;;
37895;SDS011;23733;53.254;10.430;2023-07-24T07:53:46;4.60;;;3.00;;
37895;SDS011;23733;53.254;10.430;2023-07-24T07:56:12;4.53;;;3.53;;
37895;SDS011;23733;53.254;10.430;2023-07-24T07:58:38;3.37;;;3.07;;
37895;SDS011;23733;53.254;10.430;2023-07-24T08:01:04;3.40;;;3.10;;
37895;SDS011;23733;53.254;10.430;2023-07-24T08:03:31;5.77;;;3.60;;
37895;SDS011;23733;53.254;10.430;2023-07-24T08:05:57;6.50;;;3.80;;
37895;SDS011;23733;53.254;10.430;2023-07-24T08:08:23;5.40;;;3.50;;
37895;SDS011;23733;53.254;10.430;2023-07-24T08:10:49;6.00;;;3.70;;
37895;SDS011;23733;53.254;10.430;2023-07-24T08:13:15;4.30;;;3.90;;
37895;SDS011;23733;53.254;10.430;2023-07-24T08:15:41;4.70;;;3.53;;
37895;SDS011;23733;53.254;10.430;2023-07-24T08:18:07;4.60;;;3.20;;
37895;SDS011;23733;53.254;10.430;2023-07-24T08:20:37;3.70;;;3.40;;
37895;SDS011;23733;53.254;10.430;2023-07-24T08:23:04;4.93;;;3.40;;
37895;SDS011;23733;53.254;10.430;2023-07-24T08:25:30;4.73;;;3.23;;
37895;SDS011;23733;53.254;10.430;2023-07-24T08:27:56;3.50;;;3.20;;
37895;SDS011;23733;53.254;10.430;2023-07-24T08:30:22;5.50;;;3.17;;
37895;SDS011;23733;53.254;10.430;2023-07-24T08:32:48;4.20;;;2.80;;
37895;SDS011;23733;53.254;10.430;2023-07-24T08:35:16;4.40;;;2.50;;
37895;SDS011;23733;53.254;10.430;2023-07-24T08:37:43;2.93;;;2.60;;
37895;SDS011;23733;53.254;10.430;2023-07-24T08:40:09;3.63;;;2.50;;
37895;SDS011;23733;53.254;10.430;2023-07-24T08:42:38;3.17;;;2.40;;
37895;SDS011;23733;53.254;10.430;2023-07-24T08:45:05;3.40;;;2.50;;
37895;SDS011;23733;53.254;10.430;2023-07-24T08:47:37;4.37;;;2.40;;
37895;SDS011;23733;53.254;10.430;2023-07-24T08:50:06;3.20;;;2.27;;
37895;SDS011;23733;53.254;10.430;2023-07-24T08:52:35;3.20;;;2.60;;
37895;SDS011;23733;53.254;10.430;2023-07-24T08:55:01;2.77;;;2.40;;
37895;SDS011;23733;53.254;10.430;2023-07-24T08:57:29;3.53;;;2.30;;
37895;SDS011;23733;53.254;10.430;2023-07-24T08:59:55;2.73;;;2.10;;
37895;SDS011;23733;53.254;10.430;2023-07-24T09:02:21;3.47;;;2.30;;
37895;SDS011;23733;53.254;10.430;2023-07-24T09:04:47;3.83;;;2.30;;
37895;SDS011;23733;53.254;10.430;2023-07-24T09:07:13;2.70;;;1.90;;
37895;SDS011;23733;53.254;10.430;2023-07-24T09:09:39;2.17;;;1.60;;
37895;SDS011;23733;53.254;10.430;2023-07-24T09:12:05;2.37;;;1.73;;
37895;SDS011;23733;53.254;10.430;2023-07-24T09:14:31;2.57;;;2.00;;
37895;SDS011;23733;53.254;10.430;2023-07-24T09:19:30;3.97;;;2.20;;
37895;SDS011;23733;53.254;10.430;2023-07-24T09:22:06;5.47;;;2.00;;
37895;SDS011;23733;53.254;10.430;2023-07-24T09:24:34;2.07;;;1.87;;
37895;SDS011;23733;53.254;10.430;2023-07-24T09:27:00;1.80;;;1.70;;
37895;SDS011;23733;53.254;10.430;2023-07-24T09:29:30;2.70;;;2.07;;
37895;SDS011;23733;53.254;10.430;2023-07-24T09:31:57;3.13;;;2.20;;
37895;SDS011;23733;53.254;10.430;2023-07-24T09:34:24;2.27;;;1.90;;
37895;SDS011;23733;53.254;10.430;2023-07-24T09:36:51;2.13;;;1.83;;
37895;SDS011;23733;53.254;10.430;2023-07-24T09:39:26;3.23;;;2.07;;
37895;SDS011;23733;53.254;10.430;2023-07-24T09:41:52;1.50;;;1.40;;
37895;SDS011;23733;53.254;10.430;2023-07-24T09:44:20;1.80;;;1.70;;
37895;SDS011;23733;53.254;10.430;2023-07-24T09:46:46;2.27;;;1.90;;
37895;SDS011;23733;53.254;10.430;2023-07-24T09:49:12;3.27;;;1.80;;
37895;SDS011;23733;53.254;10.430;2023-07-24T09:51:38;2.77;;;1.70;;
37895;SDS011;23733;53.254;10.430;2023-07-24T09:54:15;2.00;;;1.60;;
37895;SDS011;23733;53.254;10.430;2023-07-24T09:56:45;2.27;;;1.70;;
37895;SDS011;23733;53.254;10.430;2023-07-24T09:59:12;2.43;;;1.40;;
37895;SDS011;23733;53.254;10.430;2023-07-24T10:01:39;3.50;;;1.63;;
37895;SDS011;23733;53.254;10.430;2023-07-24T10:04:05;3.53;;;1.60;;
37895;SDS011;23733;53.254;10.430;2023-07-24T10:06:32;3.70;;;1.70;;
37895;SDS011;23733;53.254;10.430;2023-07-24T10:08:59;3.93;;;1.43;;
37895;SDS011;23733;53.254;10.430;2023-07-24T10:11:26;1.87;;;1.30;;
37895;SDS011;23733;53.254;10.430;2023-07-24T10:13:52;3.33;;;1.50;;
37895;SDS011;23733;53.254;10.430;2023-07-24T10:16:19;2.30;;;1.57;;
37895;SDS011;23733;53.254;10.430;2023-07-24T10:18:45;2.37;;;1.30;;
37895;SDS011;23733;53.254;10.430;2023-07-24T10:21:12;2.23;;;1.60;;
37895;SDS011;23733;53.254;10.430;2023-07-24T10:23:45;1.50;;;1.40;;
37895;SDS011;23733;53.254;10.430;2023-07-24T10:26:14;1.67;;;1.40;;
37895;SDS011;23733;53.254;10.430;2023-07-24T10:28:41;1.60;;;1.40;;
37895;SDS011;23733;53.254;10.430;2023-07-24T10:31:20;1.73;;;1.50;;
37895;SDS011;23733;53.254;10.430;2023-07-24T10:33:53;1.93;;;1.50;;
37895;SDS011;23733;53.254;10.430;2023-07-24T10:36:21;1.50;;;1.40;;
37895;SDS011;23733;53.254;10.430;2023-07-24T10:38:52;1.83;;;1.20;;
37895;SDS011;23733;53.254;10.430;2023-07-24T10:41:19;1.70;;;1.60;;
37895;SDS011;23733;53.254;10.430;2023-07-24T10:43:46;1.70;;;1.60;;
37895;SDS011;23733;53.254;10.430;2023-07-24T10:46:14;2.20;;;1.70;;
37895;SDS011;23733;53.254;10.430;2023-07-24T10:48:42;1.87;;;1.60;;
37895;SDS011;23733;53.254;10.430;2023-07-24T10:51:10;2.60;;;2.17;;
37895;SDS011;23733;53.254;10.430;2023-07-24T10:53:36;2.30;;;2.10;;
37895;SDS011;23733;53.254;10.430;2023-07-24T10:56:04;2.23;;;1.97;;
37895;SDS011;23733;53.254;10.430;2023-07-24T10:58:31;3.43;;;2.17;;
37895;SDS011;23733;53.254;10.430;2023-07-24T11:00:57;2.50;;;2.17;;
37895;SDS011;23733;53.254;10.430;2023-07-24T11:03:24;2.10;;;1.90;;
37895;SDS011;23733;53.254;10.430;2023-07-24T11:05:51;2.10;;;1.90;;
37895;SDS011;23733;53.254;10.430;2023-07-24T11:08:18;2.13;;;1.93;;
37895;SDS011;23733;53.254;10.430;2023-07-24T11:10:45;3.07;;;1.97;;
37895;SDS011;23733;53.254;10.430;2023-07-24T11:13:13;2.40;;;2.20;;
37895;SDS011;23733;53.254;10.430;2023-07-24T11:15:40;2.50;;;2.07;;
37895;SDS011;23733;53.254;10.430;2023-07-24T11:18:06;3.03;;;1.97;;
37895;SDS011;23733;53.254;10.430;2023-07-24T11:20:43;2.53;;;2.20;;
37895;SDS011;23733;53.254;10.430;2023-07-24T11:23:11;2.00;;;1.80;;
37895;SDS011;23733;53.254;10.430;2023-07-24T11:25:38;2.03;;;1.87;;
37895;SDS011;23733;53.254;10.430;2023-07-24T11:28:05;3.90;;;2.10;;
37895;SDS011;23733;53.254;10.430;2023-07-24T11:30:32;2.03;;;1.83;;
37895;SDS011;23733;53.254;10.430;2023-07-24T11:32:59;2.87;;;2.03;;
37895;SDS011;23733;53.254;10.430;2023-07-24T11:35:27;2.30;;;2.00;;
37895;SDS011;23733;53.254;10.430;2023-07-24T11:37:53;4.20;;;2.30;;
37895;SDS011;23733;53.254;10.430;2023-07-24T11:40:19;2.60;;;2.40;;
37895;SDS011;23733;53.254;10.430;2023-07-24T11:42:49;1.77;;;1.67;;
37895;SDS011;23733;53.254;10.430;2023-07-24T11:45:15;2.50;;;2.20;;
37895;SDS011;23733;53.254;10.430;2023-07-24T11:47:48;1.90;;;1.70;;
37895;SDS011;23733;53.254;10.430;2023-07-24T11:50:15;4.50;;;1.80;;
37895;SDS011;23733;53.254;10.430;2023-07-24T11:52:49;1.97;;;1.77;;
37895;SDS011;23733;53.254;10.430;2023-07-24T11:55:18;2.00;;;1.70;;
37895;SDS011;23733;53.254;10.430;2023-07-24T11:57:59;2.83;;;1.80;;
37895;SDS011;23733;53.254;10.430;2023-07-24T12:00:26;2.43;;;1.70;;
37895;SDS011;23733;53.254;10.430;2023-07-24T12:02:53;1.93;;;1.73;;
37895;SDS011;23733;53.254;10.430;2023-07-24T12:05:25;2.70;;;1.70;;
37895;SDS011;23733;53.254;10.430;2023-07-24T12:07:53;2.10;;;1.90;;
37895;SDS011;23733;53.254;10.430;2023-07-24T12:10:26;1.93;;;1.63;;
37895;SDS011;23733;53.254;10.430;2023-07-24T12:12:53;3.10;;;1.70;;
37895;SDS011;23733;53.254;10.430;2023-07-24T12:15:23;1.60;;;1.50;;
37895;SDS011;23733;53.254;10.430;2023-07-24T12:17:49;2.00;;;1.53;;
37895;SDS011;23733;53.254;10.430;2023-07-24T12:20:15;3.13;;;1.60;;
37895;SDS011;23733;53.254;10.430;2023-07-24T12:22:41;1.87;;;1.40;;
37895;SDS011;23733;53.254;10.430;2023-07-24T12:25:07;1.60;;;1.50;;
37895;SDS011;23733;53.254;10.430;2023-07-24T12:27:33;1.37;;;1.20;;
37895;SDS011;23733;53.254;10.430;2023-07-24T12:29:59;1.80;;;1.20;;
37895;SDS011;23733;53.254;10.430;2023-07-24T12:32:26;1.40;;;1.30;;
37895;SDS011;23733;53.254;10.430;2023-07-24T12:34:52;1.97;;;1.27;;
37895;SDS011;23733;53.254;10.430;2023-07-24T12:37:19;2.50;;;1.30;;
37895;SDS011;23733;53.254;10.430;2023-07-24T12:39:46;1.50;;;1.40;;
37895;SDS011;23733;53.254;10.430;2023-07-24T12:42:12;1.97;;;1.20;;
37895;SDS011;23733;53.254;10.430;2023-07-24T12:44:39;1.57;;;1.40;;
37895;SDS011;23733;53.254;10.430;2023-07-24T12:47:06;1.43;;;1.23;;
37895;SDS011;23733;53.254;10.430;2023-07-24T12:49:32;1.43;;;1.27;;
37895;SDS011;23733;53.254;10.430;2023-07-24T12:51:58;3.10;;;1.17;;
37895;SDS011;23733;53.254;10.430;2023-07-24T12:54:24;2.70;;;1.23;;
37895;SDS011;23733;53.254;10.430;2023-07-24T12:56:51;1.23;;;1.13;;
37895;SDS011;23733;53.254;10.430;2023-07-24T12:59:17;1.23;;;1.13;;
37895;SDS011;23733;53.254;10.430;2023-07-24T13:01:44;1.30;;;1.20;;
37895;SDS011;23733;53.254;10.430;2023-07-24T13:04:10;2.13;;;1.20;;
37895;SDS011;23733;53.254;10.430;2023-07-24T13:06:36;1.30;;;1.20;;
37895;SDS011;23733;53.254;10.430;2023-07-24T13:09:03;2.03;;;1.00;;
37895;SDS011;23733;53.254;10.430;2023-07-24T13:11:29;1.10;;;1.00;;
37895;SDS011;23733;53.254;10.430;2023-07-24T13:13:56;1.20;;;1.10;;
37895;SDS011;23733;53.254;10.430;2023-07-24T13:16:22;1.33;;;1.10;;
37895;SDS011;23733;53.254;10.430;2023-07-24T13:18:49;2.20;;;1.20;;
37895;SDS011;23733;53.254;10.430;2023-07-24T13:21:15;1.50;;;1.13;;
37895;SDS011;23733;53.254;10.430;2023-07-24T13:23:41;1.20;;;1.10;;
37895;SDS011;23733;53.254;10.430;2023-07-24T13:26:07;1.50;;;1.07;;
37895;SDS011;23733;53.254;10.430;2023-07-24T13:28:35;1.23;;;1.03;;
37895;SDS011;23733;53.254;10.430;2023-07-24T13:31:12;1.17;;;1.07;;
37895;SDS011;23733;53.254;10.430;2023-07-24T13:33:42;1.20;;;1.10;;
37895;SDS011;23733;53.254;10.430;2023-07-24T13:36:08;1.10;;;1.00;;
37895;SDS011;23733;53.254;10.430;2023-07-24T13:38:35;1.10;;;1.00;;
37895;SDS011;23733;53.254;10.430;2023-07-24T13:41:01;1.53;;;1.00;;
37895;SDS011;23733;53.254;10.430;2023-07-24T13:43:28;2.17;;;1.43;;
37895;SDS011;23733;53.254;10.430;2023-07-24T13:45:55;1.50;;;1.40;;
37895;SDS011;23733;53.254;10.430;2023-07-24T13:48:21;1.40;;;1.27;;
37895;SDS011;23733;53.254;10.430;2023-07-24T13:50:47;1.20;;;1.10;;
37895;SDS011;23733;53.254;10.430;2023-07-24T13:53:14;1.57;;;1.40;;
37895;SDS011;23733;53.254;10.430;2023-07-24T13:55:40;1.53;;;1.43;;
37895;SDS011;23733;53.254;10.430;2023-07-24T13:58:06;2.33;;;1.43;;
37895;SDS011;23733;53.254;10.430;2023-07-24T14:00:32;1.70;;;1.60;;
37895;SDS011;23733;53.254;10.430;2023-07-24T14:02:58;1.50;;;1.40;;
37895;SDS011;23733;53.254;10.430;2023-07-24T14:05:24;1.90;;;1.70;;
37895;SDS011;23733;53.254;10.430;2023-07-24T14:07:50;2.10;;;1.50;;
37895;SDS011;23733;53.254;10.430;2023-07-24T14:10:16;2.97;;;1.70;;
37895;SDS011;23733;53.254;10.430;2023-07-24T14:12:42;2.43;;;1.60;;
37895;SDS011;23733;53.254;10.430;2023-07-24T14:15:08;1.63;;;1.53;;
37895;SDS011;23733;53.254;10.430;2023-07-24T14:17:34;5.70;;;1.90;;
37895;SDS011;23733;53.254;10.430;2023-07-24T14:20:03;2.10;;;1.80;;
37895;SDS011;23733;53.254;10.430;2023-07-24T14:22:29;1.90;;;1.67;;
37895;SDS011;23733;53.254;10.430;2023-07-24T14:24:55;2.13;;;1.83;;
37895;SDS011;23733;53.254;10.430;2023-07-24T14:27:22;1.93;;;1.73;;
37895;SDS011;23733;53.254;10.430;2023-07-24T14:29:48;2.73;;;1.80;;
37895;SDS011;23733;53.254;10.430;2023-07-24T14:32:14;1.93;;;1.60;;
37895;SDS011;23733;53.254;10.430;2023-07-24T14:34:41;2.13;;;1.80;;
37895;SDS011;23733;53.254;10.430;2023-07-24T14:37:07;2.50;;;2.10;;
37895;SDS011;23733;53.254;10.430;2023-07-24T14:39:33;2.50;;;1.97;;